Weather History for Cairo, IL

Change the Weather History Date:

Saturday, January 19, 2013

  Actual Average Record
Temperature  
Mean Temperature 46 °F -  
Max Temperature 57 °F 39 °F 68 °F (1952)
Min Temperature 35 °F 25 °F 0 °F (1984)
Degree Days  
Heating Degree Days 19    
Moisture  
Dew Point 35 °F    
Average Humidity 64    
Maximum Humidity 81    
Minimum Humidity 47    
Precipitation  
Precipitation 0.00 in - - ()
Sea Level Pressure  
Sea Level Pressure 30.18 in    
Wind  
Wind Speed 9 mph (SSW)    
Max Wind Speed 20 mph    
Max Gust Speed 29 mph    
Visibility 10 miles    
Events      
Averages and records for this station are not official NWS values.
T = Trace of Precipitation, MM = Missing Value Source: NWS Daily Summary

Daily Weather History Graph

Daily Weather History Graph

Search for Another Location

Airport:

Trip Planner

Search our weather history database for the weather conditions in past years. The results will help you decide how hot, cold, wet, or windy it might be!

Date:

Astronomy

Jan. 19, 2013 Rise Set
Actual Time 7:07 AM CST 5:08 PM CST
Civil Twilight 6:39 AM CST 5:36 PM CST
Nautical Twilight 6:07 AM CST 6:07 PM CST
Astronomical Twilight 5:36 AM CST 6:39 PM CST
Moon 11:32 AM CST (1/19) 12:44 AM CST (1/19)
Length of Visible Light 10h 56m
Length of Day
10h 00m
First Quarter, 57% of the Moon is Illuminated
Jan 19
First Quarter
Jan 26
Full
Feb 3
Last Quarter
Feb 10
New
Feb 17
First Quarter

Hourly Weather History & Observations

Time (CST) Temp. Windchill Dew Point Humidity Pressure Visibility Wind Dir Wind Speed Gust Speed Precip Events Conditions
12:15 AM 37.4 °F 32.1 °F 28.4 °F 70% 30.29 in 10.0 mi South 6.9 mph - N/A   Clear
12:35 AM 37.4 °F 32.8 °F 28.4 °F 70% 30.29 in 10.0 mi South 5.8 mph - N/A   Clear
12:55 AM 35.6 °F 30.7 °F 28.4 °F 75% 30.29 in 10.0 mi South 5.8 mph - N/A   Clear
1:15 AM 37.4 °F 33.8 °F 28.4 °F 70% 30.29 in 10.0 mi South 4.6 mph - N/A   Clear
1:35 AM 37.4 °F 32.8 °F 28.4 °F 70% 30.29 in 10.0 mi South 5.8 mph - N/A   Clear
1:55 AM 37.4 °F 33.8 °F 28.4 °F 70% 30.28 in 10.0 mi South 4.6 mph - N/A   Clear
2:15 AM 37.4 °F 33.8 °F 28.4 °F 70% 30.29 in 10.0 mi South 4.6 mph - N/A   Clear
2:35 AM 35.6 °F 29.9 °F 28.4 °F 75% 30.28 in 10.0 mi South 6.9 mph - N/A   Clear
2:55 AM 37.4 °F 32.1 °F 28.4 °F 70% 30.28 in 10.0 mi South 6.9 mph - N/A   Clear
3:15 AM 37.4 °F 31.4 °F 28.4 °F 70% 30.27 in 10.0 mi South 8.1 mph - N/A   Clear
3:35 AM 37.4 °F 31.4 °F 30.2 °F 75% 30.26 in 10.0 mi South 8.1 mph - N/A   Clear
3:55 AM 37.4 °F 32.1 °F 30.2 °F 75% 30.26 in 10.0 mi South 6.9 mph - N/A   Clear
4:15 AM 37.4 °F 32.1 °F 30.2 °F 75% 30.26 in 10.0 mi South 6.9 mph - N/A   Clear
4:35 AM 35.6 °F 31.7 °F 30.2 °F 81% 30.26 in 10.0 mi South 4.6 mph - N/A   Clear
4:55 AM 35.6 °F 30.7 °F 30.2 °F 81% 30.26 in 10.0 mi SSW 5.8 mph - N/A   Clear
5:15 AM 37.4 °F 33.8 °F 30.2 °F 75% 30.26 in 10.0 mi SSW 4.6 mph - N/A   Clear
5:35 AM 37.4 °F 32.8 °F 30.2 °F 75% 30.26 in 10.0 mi South 5.8 mph - N/A   Clear
6:35 AM 37.4 °F 32.1 °F 30.2 °F 75% 30.25 in 10.0 mi South 6.9 mph - N/A   Clear
6:55 AM 37.4 °F 32.1 °F 30.2 °F 75% 30.25 in 10.0 mi South 6.9 mph - N/A   Clear
7:15 AM 37.4 °F 31.4 °F 30.2 °F 75% 30.25 in 10.0 mi South 8.1 mph - N/A   Clear
7:55 AM 39.2 °F 33.0 °F 30.2 °F 70% 30.25 in 10.0 mi South 9.2 mph - N/A   Clear
8:15 AM 41.0 °F 35.8 °F 32.0 °F 70% 30.25 in 10.0 mi South 8.1 mph - N/A   Clear
8:35 AM 41.0 °F 34.3 °F 32.0 °F 70% 30.25 in 10.0 mi South 11.5 mph 17.3 mph N/A   Clear
9:35 AM 44.6 °F 38.4 °F 33.8 °F 66% 30.25 in 10.0 mi South 12.7 mph - N/A   Clear
9:55 AM 46.4 °F 40.1 °F 33.8 °F 62% 30.25 in 10.0 mi South 15.0 mph - N/A   Clear
10:15 AM 48.2 °F - 33.8 °F 58% 30.24 in 10.0 mi SSW 13.8 mph 18.4 mph N/A   Clear
10:35 AM 50.0 °F - 35.6 °F 58% 30.23 in 10.0 mi SSW 12.7 mph 24.2 mph N/A   Clear
10:55 AM 51.8 °F - 35.6 °F 54% 30.22 in 10.0 mi SSW 13.8 mph 19.6 mph N/A   Clear
11:15 AM 53.6 °F - 33.8 °F 47% 30.21 in 10.0 mi SSW 13.8 mph 20.7 mph N/A   Clear
11:35 AM 53.6 °F - 35.6 °F 51% 30.19 in 10.0 mi SSW 19.6 mph 23.0 mph N/A   Clear
11:55 AM 53.6 °F - 35.6 °F 51% 30.17 in 10.0 mi SSW 18.4 mph 23.0 mph N/A   Clear
12:15 PM 53.6 °F - 35.6 °F 51% 30.15 in 10.0 mi SSW 15.0 mph 23.0 mph N/A   Clear
12:35 PM 53.6 °F - 37.4 °F 54% 30.14 in 10.0 mi SSW 18.4 mph 26.5 mph N/A   Clear
12:55 PM 55.4 °F - 37.4 °F 51% 30.14 in 10.0 mi SSW 18.4 mph 23.0 mph N/A   Clear
1:15 PM 55.4 °F - 37.4 °F 51% 30.12 in 10.0 mi SSW 18.4 mph 25.3 mph N/A   Clear
1:35 PM 55.4 °F - 37.4 °F 51% 30.12 in 10.0 mi SSW 13.8 mph 25.3 mph N/A   Clear
1:55 PM 55.4 °F - 37.4 °F 51% 30.11 in 10.0 mi SSW 16.1 mph 23.0 mph N/A   Clear
2:15 PM 57.2 °F - 39.2 °F 51% 30.10 in 10.0 mi SSW 13.8 mph 25.3 mph N/A   Clear
2:35 PM 57.2 °F - 39.2 °F 51% 30.09 in 10.0 mi SSW 15.0 mph 23.0 mph N/A   Clear
2:55 PM 57.2 °F - 39.2 °F 51% 30.09 in 10.0 mi SSW 18.4 mph 27.6 mph N/A   Clear
3:15 PM 55.4 °F - 39.2 °F 54% 30.09 in 10.0 mi SSW 17.3 mph 24.2 mph N/A   Clear
3:35 PM 55.4 °F - 39.2 °F 54% 30.09 in 10.0 mi SSW 16.1 mph 25.3 mph N/A   Clear
3:55 PM 55.4 °F - 39.2 °F 54% 30.08 in 10.0 mi South 11.5 mph 28.8 mph N/A   Clear
4:15 PM 55.4 °F - 39.2 °F 54% 30.08 in 10.0 mi SSW 13.8 mph 25.3 mph N/A   Clear
4:35 PM 55.4 °F - 39.2 °F 54% 30.08 in 10.0 mi South 13.8 mph 18.4 mph N/A   Clear
4:55 PM 53.6 °F - 39.2 °F 58% 30.07 in 10.0 mi South 11.5 mph 17.3 mph N/A   Clear
5:15 PM 53.6 °F - 39.2 °F 58% 30.07 in 10.0 mi South 10.4 mph - N/A   Clear
5:35 PM 51.8 °F - 39.2 °F 62% 30.08 in 10.0 mi SSW 10.4 mph 16.1 mph N/A   Clear
5:55 PM 51.8 °F - 39.2 °F 62% 30.09 in 10.0 mi SSW 9.2 mph 20.7 mph N/A   Clear
6:15 PM 51.8 °F - 39.2 °F 62% 30.10 in 10.0 mi SSW 13.8 mph 19.6 mph N/A   Clear
6:35 PM 51.8 °F - 37.4 °F 58% 30.10 in 10.0 mi SSW 12.7 mph 18.4 mph N/A   Clear
6:55 PM 51.8 °F - 37.4 °F 58% 30.10 in 10.0 mi SSW 11.5 mph 17.3 mph N/A   Clear
7:15 PM 51.8 °F - 37.4 °F 58% 30.11 in 10.0 mi SSW 11.5 mph 18.4 mph N/A   Clear
7:35 PM 50.0 °F - 37.4 °F 62% 30.12 in 10.0 mi SSW 11.5 mph 18.4 mph N/A   Clear
7:55 PM 50.0 °F - 37.4 °F 62% 30.13 in 10.0 mi SSW 11.5 mph - N/A   Clear
8:15 PM 50.0 °F - 37.4 °F 62% 30.12 in 10.0 mi SSW 11.5 mph - N/A   Clear
8:55 PM 48.2 °F - 37.4 °F 66% 30.13 in 10.0 mi SSW 10.4 mph - N/A   Clear
9:15 PM 48.2 °F - 37.4 °F 66% 30.13 in 10.0 mi SSW 10.4 mph - N/A   Clear
9:35 PM 46.4 °F 42.9 °F 37.4 °F 71% 30.14 in 10.0 mi SSW 6.9 mph - N/A   Clear
9:55 PM 46.4 °F 42.9 °F 37.4 °F 71% 30.14 in 10.0 mi SSW 6.9 mph - N/A   Clear
10:15 PM 46.4 °F 42.4 °F 37.4 °F 71% 30.14 in 10.0 mi SSW 8.1 mph - N/A   Clear
10:35 PM 44.6 °F 41.4 °F 37.4 °F 76% 30.14 in 10.0 mi SSW 5.8 mph - N/A   Clear
10:55 PM 44.6 °F 40.7 °F 37.4 °F 76% 30.14 in 10.0 mi SW 6.9 mph - N/A   Clear
11:15 PM 44.6 °F 41.4 °F 37.4 °F 76% 30.14 in 10.0 mi SW 5.8 mph - N/A   Clear
11:35 PM 44.6 °F 41.4 °F 35.6 °F 71% 30.15 in 10.0 mi SW 5.8 mph - N/A   Clear
11:55 PM 42.8 °F 38.0 °F 35.6 °F 76% 30.14 in 10.0 mi SSW 8.1 mph - N/A   Clear